sensor_id;sensor_type;location;lat;lon;timestamp;P1;durP1;ratioP1;P2;durP2;ratioP2
47635;SDS011;33364;50.766;15.338;2022-11-12T00:02:08;5.18;;;2.78;;
47635;SDS011;33364;50.766;15.338;2022-11-12T00:04:34;5.10;;;2.35;;
47635;SDS011;33364;50.766;15.338;2022-11-12T00:07:00;4.13;;;2.25;;
47635;SDS011;33364;50.766;15.338;2022-11-12T00:09:25;5.75;;;2.75;;
47635;SDS011;33364;50.766;15.338;2022-11-12T00:11:51;6.22;;;2.42;;
47635;SDS011;33364;50.766;15.338;2022-11-12T00:14:17;6.15;;;2.15;;
47635;SDS011;33364;50.766;15.338;2022-11-12T00:16:42;4.80;;;1.70;;
47635;SDS011;33364;50.766;15.338;2022-11-12T00:19:08;3.47;;;1.80;;
47635;SDS011;33364;50.766;15.338;2022-11-12T00:21:33;3.38;;;1.52;;
47635;SDS011;33364;50.766;15.338;2022-11-12T00:23:59;5.35;;;2.10;;
47635;SDS011;33364;50.766;15.338;2022-11-12T00:26:24;5.38;;;2.20;;
47635;SDS011;33364;50.766;15.338;2022-11-12T00:28:50;7.70;;;2.33;;
47635;SDS011;33364;50.766;15.338;2022-11-12T00:31:15;6.22;;;2.17;;
47635;SDS011;33364;50.766;15.338;2022-11-12T00:33:42;2.35;;;1.10;;
47635;SDS011;33364;50.766;15.338;2022-11-12T00:36:08;3.15;;;1.38;;
47635;SDS011;33364;50.766;15.338;2022-11-12T00:38:34;1.38;;;0.73;;
47635;SDS011;33364;50.766;15.338;2022-11-12T00:41:00;1.25;;;0.75;;
47635;SDS011;33364;50.766;15.338;2022-11-12T00:43:26;4.20;;;1.20;;
47635;SDS011;33364;50.766;15.338;2022-11-12T00:45:51;2.53;;;1.00;;
47635;SDS011;33364;50.766;15.338;2022-11-12T00:48:17;3.45;;;1.10;;
47635;SDS011;33364;50.766;15.338;2022-11-12T00:50:42;3.80;;;1.30;;
47635;SDS011;33364;50.766;15.338;2022-11-12T00:53:08;3.38;;;1.20;;
47635;SDS011;33364;50.766;15.338;2022-11-12T00:55:34;2.40;;;1.33;;
47635;SDS011;33364;50.766;15.338;2022-11-12T00:57:59;4.18;;;1.13;;
47635;SDS011;33364;50.766;15.338;2022-11-12T01:00:25;2.42;;;1.23;;
47635;SDS011;33364;50.766;15.338;2022-11-12T01:02:51;3.97;;;1.60;;
47635;SDS011;33364;50.766;15.338;2022-11-12T01:05:17;5.22;;;1.77;;
47635;SDS011;33364;50.766;15.338;2022-11-12T01:07:43;2.53;;;1.08;;
47635;SDS011;33364;50.766;15.338;2022-11-12T01:10:09;3.42;;;1.15;;
47635;SDS011;33364;50.766;15.338;2022-11-12T01:12:36;8.57;;;1.70;;
47635;SDS011;33364;50.766;15.338;2022-11-12T01:15:03;3.50;;;1.30;;
47635;SDS011;33364;50.766;15.338;2022-11-12T01:17:30;5.00;;;1.73;;
47635;SDS011;33364;50.766;15.338;2022-11-12T01:19:56;4.50;;;1.40;;
47635;SDS011;33364;50.766;15.338;2022-11-12T01:22:22;4.40;;;1.55;;
47635;SDS011;33364;50.766;15.338;2022-11-12T01:24:48;5.03;;;1.92;;
47635;SDS011;33364;50.766;15.338;2022-11-12T01:27:13;5.10;;;1.88;;
47635;SDS011;33364;50.766;15.338;2022-11-12T01:29:39;3.55;;;1.50;;
47635;SDS011;33364;50.766;15.338;2022-11-12T01:32:05;4.78;;;1.60;;
47635;SDS011;33364;50.766;15.338;2022-11-12T01:34:31;3.53;;;1.52;;
47635;SDS011;33364;50.766;15.338;2022-11-12T01:36:57;5.90;;;2.45;;
47635;SDS011;33364;50.766;15.338;2022-11-12T01:39:23;5.35;;;1.40;;
47635;SDS011;33364;50.766;15.338;2022-11-12T01:41:48;3.78;;;1.38;;
47635;SDS011;33364;50.766;15.338;2022-11-12T01:52:40;3.20;;;1.00;;
47635;SDS011;33364;50.766;15.338;2022-11-12T01:55:12;4.32;;;1.00;;
47635;SDS011;33364;50.766;15.338;2022-11-12T01:57:51;2.45;;;1.30;;
47635;SDS011;33364;50.766;15.338;2022-11-12T02:00:23;4.40;;;1.80;;
47635;SDS011;33364;50.766;15.338;2022-11-12T02:02:53;3.35;;;1.20;;
47635;SDS011;33364;50.766;15.338;2022-11-12T02:05:21;3.25;;;0.80;;
47635;SDS011;33364;50.766;15.338;2022-11-12T02:07:49;1.15;;;0.70;;
47635;SDS011;33364;50.766;15.338;2022-11-12T02:10:16;2.42;;;1.00;;
47635;SDS011;33364;50.766;15.338;2022-11-12T02:12:42;2.55;;;1.30;;
47635;SDS011;33364;50.766;15.338;2022-11-12T02:15:26;3.72;;;1.50;;
47635;SDS011;33364;50.766;15.338;2022-11-12T02:17:52;2.30;;;1.23;;
47635;SDS011;33364;50.766;15.338;2022-11-12T02:20:18;2.92;;;1.30;;
47635;SDS011;33364;50.766;15.338;2022-11-12T02:22:44;3.38;;;1.20;;
47635;SDS011;33364;50.766;15.338;2022-11-12T02:25:15;2.35;;;1.30;;
47635;SDS011;33364;50.766;15.338;2022-11-12T02:27:43;1.83;;;1.00;;
47635;SDS011;33364;50.766;15.338;2022-11-12T02:30:10;2.35;;;0.82;;
47635;SDS011;33364;50.766;15.338;2022-11-12T02:32:36;2.30;;;1.30;;
47635;SDS011;33364;50.766;15.338;2022-11-12T02:35:02;1.95;;;1.00;;
47635;SDS011;33364;50.766;15.338;2022-11-12T02:37:28;3.92;;;0.90;;
47635;SDS011;33364;50.766;15.338;2022-11-12T02:39:54;3.35;;;1.50;;
47635;SDS011;33364;50.766;15.338;2022-11-12T02:42:19;2.90;;;1.10;;
47635;SDS011;33364;50.766;15.338;2022-11-12T02:44:45;4.85;;;1.35;;
47635;SDS011;33364;50.766;15.338;2022-11-12T02:47:10;3.00;;;0.90;;
47635;SDS011;33364;50.766;15.338;2022-11-12T02:49:36;2.83;;;0.70;;
47635;SDS011;33364;50.766;15.338;2022-11-12T02:52:02;1.80;;;0.80;;
47635;SDS011;33364;50.766;15.338;2022-11-12T02:54:27;2.50;;;0.90;;
47635;SDS011;33364;50.766;15.338;2022-11-12T02:56:53;2.72;;;1.15;;
47635;SDS011;33364;50.766;15.338;2022-11-12T02:59:18;3.00;;;1.23;;
47635;SDS011;33364;50.766;15.338;2022-11-12T03:01:44;3.38;;;1.30;;
47635;SDS011;33364;50.766;15.338;2022-11-12T03:04:10;4.93;;;1.52;;
47635;SDS011;33364;50.766;15.338;2022-11-12T03:06:35;4.78;;;1.27;;
47635;SDS011;33364;50.766;15.338;2022-11-12T03:09:01;3.85;;;1.15;;
47635;SDS011;33364;50.766;15.338;2022-11-12T03:11:26;1.88;;;0.90;;
47635;SDS011;33364;50.766;15.338;2022-11-12T03:13:52;5.18;;;0.73;;
47635;SDS011;33364;50.766;15.338;2022-11-12T03:16:18;1.40;;;0.75;;
47635;SDS011;33364;50.766;15.338;2022-11-12T03:18:44;3.97;;;0.90;;
47635;SDS011;33364;50.766;15.338;2022-11-12T03:21:09;2.90;;;1.20;;
47635;SDS011;33364;50.766;15.338;2022-11-12T03:23:35;4.10;;;1.15;;
47635;SDS011;33364;50.766;15.338;2022-11-12T03:26:01;7.20;;;2.15;;
47635;SDS011;33364;50.766;15.338;2022-11-12T03:28:28;8.70;;;3.30;;
47635;SDS011;33364;50.766;15.338;2022-11-12T03:30:57;5.10;;;2.15;;
47635;SDS011;33364;50.766;15.338;2022-11-12T03:33:24;6.30;;;1.77;;
47635;SDS011;33364;50.766;15.338;2022-11-12T03:35:50;3.30;;;1.15;;
47635;SDS011;33364;50.766;15.338;2022-11-12T03:38:15;2.42;;;0.80;;
47635;SDS011;33364;50.766;15.338;2022-11-12T03:40:41;2.65;;;0.98;;
47635;SDS011;33364;50.766;15.338;2022-11-12T03:43:07;1.75;;;0.70;;
47635;SDS011;33364;50.766;15.338;2022-11-12T03:45:33;1.60;;;0.80;;
47635;SDS011;33364;50.766;15.338;2022-11-12T03:47:59;1.27;;;0.88;;
47635;SDS011;33364;50.766;15.338;2022-11-12T03:50:26;1.50;;;0.73;;
47635;SDS011;33364;50.766;15.338;2022-11-12T03:52:56;2.95;;;1.05;;
47635;SDS011;33364;50.766;15.338;2022-11-12T03:55:24;3.60;;;0.90;;
47635;SDS011;33364;50.766;15.338;2022-11-12T03:57:52;2.95;;;1.27;;
47635;SDS011;33364;50.766;15.338;2022-11-12T04:00:19;3.80;;;1.23;;
47635;SDS011;33364;50.766;15.338;2022-11-12T04:02:46;4.32;;;1.52;;
47635;SDS011;33364;50.766;15.338;2022-11-12T04:05:12;1.60;;;0.90;;
47635;SDS011;33364;50.766;15.338;2022-11-12T04:08:00;2.40;;;1.13;;
47635;SDS011;33364;50.766;15.338;2022-11-12T04:10:48;3.88;;;0.80;;
47635;SDS011;33364;50.766;15.338;2022-11-12T04:13:14;2.60;;;0.68;;
47635;SDS011;33364;50.766;15.338;2022-11-12T04:16:04;1.45;;;0.77;;
47635;SDS011;33364;50.766;15.338;2022-11-12T04:18:57;2.40;;;0.88;;
47635;SDS011;33364;50.766;15.338;2022-11-12T04:21:47;1.55;;;0.88;;
47635;SDS011;33364;50.766;15.338;2022-11-12T04:24:24;2.00;;;0.90;;
47635;SDS011;33364;50.766;15.338;2022-11-12T04:27:25;2.08;;;0.63;;
47635;SDS011;33364;50.766;15.338;2022-11-12T04:29:54;1.45;;;0.70;;
47635;SDS011;33364;50.766;15.338;2022-11-12T04:32:44;1.27;;;0.65;;
47635;SDS011;33364;50.766;15.338;2022-11-12T04:35:12;4.80;;;0.70;;
47635;SDS011;33364;50.766;15.338;2022-11-12T04:37:38;1.10;;;0.75;;
47635;SDS011;33364;50.766;15.338;2022-11-12T04:40:14;2.50;;;1.23;;
47635;SDS011;33364;50.766;15.338;2022-11-12T04:43:03;2.67;;;0.75;;
47635;SDS011;33364;50.766;15.338;2022-11-12T04:45:50;1.30;;;0.52;;
47635;SDS011;33364;50.766;15.338;2022-11-12T04:48:17;2.17;;;0.90;;
47635;SDS011;33364;50.766;15.338;2022-11-12T04:50:44;2.30;;;0.70;;
47635;SDS011;33364;50.766;15.338;2022-11-12T04:53:12;2.85;;;1.08;;
47635;SDS011;33364;50.766;15.338;2022-11-12T04:55:38;1.20;;;0.80;;
47635;SDS011;33364;50.766;15.338;2022-11-12T04:58:04;1.98;;;0.98;;
47635;SDS011;33364;50.766;15.338;2022-11-12T05:00:30;4.00;;;1.15;;
47635;SDS011;33364;50.766;15.338;2022-11-12T05:02:55;2.55;;;0.77;;
47635;SDS011;33364;50.766;15.338;2022-11-12T05:05:21;2.17;;;1.52;;
47635;SDS011;33364;50.766;15.338;2022-11-12T05:07:47;3.42;;;1.20;;
47635;SDS011;33364;50.766;15.338;2022-11-12T05:10:12;1.40;;;0.60;;
47635;SDS011;33364;50.766;15.338;2022-11-12T05:12:38;2.55;;;1.42;;
47635;SDS011;33364;50.766;15.338;2022-11-12T05:15:04;1.92;;;0.73;;
47635;SDS011;33364;50.766;15.338;2022-11-12T05:17:30;4.65;;;1.00;;
47635;SDS011;33364;50.766;15.338;2022-11-12T05:19:56;2.47;;;1.25;;
47635;SDS011;33364;50.766;15.338;2022-11-12T05:22:21;2.65;;;1.20;;
47635;SDS011;33364;50.766;15.338;2022-11-12T05:24:47;2.20;;;1.40;;
47635;SDS011;33364;50.766;15.338;2022-11-12T05:27:19;2.25;;;1.17;;
47635;SDS011;33364;50.766;15.338;2022-11-12T05:29:45;1.80;;;0.88;;
47635;SDS011;33364;50.766;15.338;2022-11-12T05:32:12;3.03;;;1.20;;
47635;SDS011;33364;50.766;15.338;2022-11-12T05:34:39;3.20;;;1.05;;
47635;SDS011;33364;50.766;15.338;2022-11-12T05:37:06;2.72;;;1.48;;
47635;SDS011;33364;50.766;15.338;2022-11-12T05:39:33;2.20;;;1.13;;
47635;SDS011;33364;50.766;15.338;2022-11-12T05:41:58;4.00;;;1.55;;
47635;SDS011;33364;50.766;15.338;2022-11-12T05:44:24;2.33;;;1.10;;
47635;SDS011;33364;50.766;15.338;2022-11-12T05:46:50;4.38;;;1.75;;
47635;SDS011;33364;50.766;15.338;2022-11-12T05:49:15;3.42;;;1.02;;
47635;SDS011;33364;50.766;15.338;2022-11-12T05:51:41;6.22;;;1.55;;
47635;SDS011;33364;50.766;15.338;2022-11-12T05:54:07;4.32;;;1.38;;
47635;SDS011;33364;50.766;15.338;2022-11-12T05:56:33;2.25;;;1.20;;
47635;SDS011;33364;50.766;15.338;2022-11-12T05:59:00;2.92;;;1.80;;
47635;SDS011;33364;50.766;15.338;2022-11-12T06:01:26;3.75;;;1.85;;
47635;SDS011;33364;50.766;15.338;2022-11-12T06:03:52;2.45;;;1.58;;
47635;SDS011;33364;50.766;15.338;2022-11-12T06:06:18;4.32;;;2.45;;
47635;SDS011;33364;50.766;15.338;2022-11-12T06:08:43;6.13;;;4.88;;
47635;SDS011;33364;50.766;15.338;2022-11-12T06:11:09;15.95;;;14.32;;
47635;SDS011;33364;50.766;15.338;2022-11-12T06:13:35;7.60;;;6.72;;
47635;SDS011;33364;50.766;15.338;2022-11-12T06:16:00;7.25;;;3.50;;
47635;SDS011;33364;50.766;15.338;2022-11-12T06:18:26;5.13;;;1.85;;
47635;SDS011;33364;50.766;15.338;2022-11-12T06:20:52;3.15;;;1.80;;
47635;SDS011;33364;50.766;15.338;2022-11-12T06:23:36;5.72;;;1.80;;
47635;SDS011;33364;50.766;15.338;2022-11-12T06:26:02;2.50;;;1.10;;
47635;SDS011;33364;50.766;15.338;2022-11-12T06:28:28;1.83;;;0.90;;
47635;SDS011;33364;50.766;15.338;2022-11-12T06:30:53;0.85;;;0.60;;
47635;SDS011;33364;50.766;15.338;2022-11-12T06:33:19;2.47;;;0.73;;
47635;SDS011;33364;50.766;15.338;2022-11-12T06:35:45;0.55;;;0.47;;
47635;SDS011;33364;50.766;15.338;2022-11-12T06:38:11;3.67;;;1.83;;
47635;SDS011;33364;50.766;15.338;2022-11-12T06:40:36;3.33;;;1.73;;
47635;SDS011;33364;50.766;15.338;2022-11-12T06:43:02;3.15;;;1.65;;
47635;SDS011;33364;50.766;15.338;2022-11-12T06:45:28;2.53;;;1.70;;
47635;SDS011;33364;50.766;15.338;2022-11-12T06:47:57;2.83;;;1.40;;
47635;SDS011;33364;50.766;15.338;2022-11-12T06:50:23;5.18;;;2.83;;
47635;SDS011;33364;50.766;15.338;2022-11-12T06:52:49;4.43;;;2.05;;
47635;SDS011;33364;50.766;15.338;2022-11-12T06:55:14;5.63;;;2.28;;
47635;SDS011;33364;50.766;15.338;2022-11-12T06:57:39;2.65;;;1.33;;
47635;SDS011;33364;50.766;15.338;2022-11-12T07:00:05;108.90;;;43.47;;
47635;SDS011;33364;50.766;15.338;2022-11-12T07:02:32;57.22;;;23.30;;
47635;SDS011;33364;50.766;15.338;2022-11-12T07:04:58;7.03;;;4.20;;
47635;SDS011;33364;50.766;15.338;2022-11-12T07:07:23;136.38;;;53.97;;
47635;SDS011;33364;50.766;15.338;2022-11-12T07:09:49;14.45;;;7.30;;
47635;SDS011;33364;50.766;15.338;2022-11-12T07:12:14;8.77;;;2.80;;
47635;SDS011;33364;50.766;15.338;2022-11-12T07:14:40;6.15;;;2.55;;
47635;SDS011;33364;50.766;15.338;2022-11-12T07:17:05;5.97;;;2.35;;
47635;SDS011;33364;50.766;15.338;2022-11-12T07:19:31;2.63;;;1.30;;
47635;SDS011;33364;50.766;15.338;2022-11-12T07:21:57;4.07;;;2.45;;
47635;SDS011;33364;50.766;15.338;2022-11-12T07:24:22;12.18;;;6.32;;
47635;SDS011;33364;50.766;15.338;2022-11-12T07:26:48;12.40;;;5.80;;
47635;SDS011;33364;50.766;15.338;2022-11-12T07:29:14;7.25;;;4.28;;
47635;SDS011;33364;50.766;15.338;2022-11-12T07:31:39;10.50;;;6.32;;
47635;SDS011;33364;50.766;15.338;2022-11-12T07:34:05;11.00;;;6.10;;
47635;SDS011;33364;50.766;15.338;2022-11-12T07:36:30;15.85;;;9.23;;
47635;SDS011;33364;50.766;15.338;2022-11-12T07:38:56;23.13;;;12.82;;
47635;SDS011;33364;50.766;15.338;2022-11-12T07:41:22;26.33;;;16.58;;
47635;SDS011;33364;50.766;15.338;2022-11-12T07:43:49;15.63;;;7.97;;
47635;SDS011;33364;50.766;15.338;2022-11-12T07:46:17;17.45;;;9.13;;
47635;SDS011;33364;50.766;15.338;2022-11-12T07:48:44;23.52;;;11.45;;
47635;SDS011;33364;50.766;15.338;2022-11-12T07:51:15;11.80;;;7.25;;
47635;SDS011;33364;50.766;15.338;2022-11-12T07:53:48;8.80;;;5.63;;
47635;SDS011;33364;50.766;15.338;2022-11-12T07:56:18;15.48;;;4.70;;
47635;SDS011;33364;50.766;15.338;2022-11-12T07:58:45;12.68;;;4.97;;
47635;SDS011;33364;50.766;15.338;2022-11-12T08:01:27;10.45;;;4.47;;
47635;SDS011;33364;50.766;15.338;2022-11-12T08:03:57;13.27;;;5.63;;
47635;SDS011;33364;50.766;15.338;2022-11-12T08:06:24;12.57;;;4.70;;
47635;SDS011;33364;50.766;15.338;2022-11-12T08:08:51;20.52;;;9.07;;
47635;SDS011;33364;50.766;15.338;2022-11-12T08:11:17;14.73;;;6.90;;
47635;SDS011;33364;50.766;15.338;2022-11-12T08:13:43;11.82;;;5.20;;
47635;SDS011;33364;50.766;15.338;2022-11-12T08:16:09;11.70;;;3.40;;
47635;SDS011;33364;50.766;15.338;2022-11-12T08:18:35;10.63;;;3.25;;
47635;SDS011;33364;50.766;15.338;2022-11-12T08:21:01;10.90;;;4.07;;
47635;SDS011;33364;50.766;15.338;2022-11-12T08:23:28;11.38;;;3.22;;
47635;SDS011;33364;50.766;15.338;2022-11-12T08:25:57;6.13;;;2.42;;
47635;SDS011;33364;50.766;15.338;2022-11-12T08:28:27;4.45;;;1.75;;
47635;SDS011;33364;50.766;15.338;2022-11-12T08:30:54;4.05;;;1.50;;
47635;SDS011;33364;50.766;15.338;2022-11-12T08:33:21;3.80;;;1.33;;
47635;SDS011;33364;50.766;15.338;2022-11-12T08:35:47;3.83;;;1.50;;
47635;SDS011;33364;50.766;15.338;2022-11-12T08:38:13;5.78;;;2.25;;
47635;SDS011;33364;50.766;15.338;2022-11-12T08:40:39;3.75;;;1.65;;
47635;SDS011;33364;50.766;15.338;2022-11-12T08:43:06;7.10;;;2.63;;
47635;SDS011;33364;50.766;15.338;2022-11-12T08:45:35;3.75;;;1.70;;
47635;SDS011;33364;50.766;15.338;2022-11-12T08:48:03;3.45;;;1.70;;
47635;SDS011;33364;50.766;15.338;2022-11-12T08:50:30;4.10;;;1.70;;
47635;SDS011;33364;50.766;15.338;2022-11-12T08:53:00;3.85;;;1.23;;
47635;SDS011;33364;50.766;15.338;2022-11-12T08:55:27;20.83;;;10.05;;
47635;SDS011;33364;50.766;15.338;2022-11-12T08:57:54;35.97;;;18.15;;
47635;SDS011;33364;50.766;15.338;2022-11-12T09:00:20;48.67;;;26.27;;
47635;SDS011;33364;50.766;15.338;2022-11-12T09:02:46;61.08;;;30.00;;
47635;SDS011;33364;50.766;15.338;2022-11-12T09:05:11;52.67;;;28.63;;
47635;SDS011;33364;50.766;15.338;2022-11-12T09:07:37;46.83;;;27.67;;
47635;SDS011;33364;50.766;15.338;2022-11-12T09:10:03;46.90;;;24.73;;
47635;SDS011;33364;50.766;15.338;2022-11-12T09:12:29;44.88;;;25.90;;
47635;SDS011;33364;50.766;15.338;2022-11-12T09:14:54;35.92;;;22.55;;
47635;SDS011;33364;50.766;15.338;2022-11-12T09:17:20;19.63;;;11.05;;
47635;SDS011;33364;50.766;15.338;2022-11-12T09:19:46;16.98;;;9.38;;
47635;SDS011;33364;50.766;15.338;2022-11-12T09:22:12;16.25;;;9.25;;
47635;SDS011;33364;50.766;15.338;2022-11-12T09:24:37;21.05;;;10.82;;
47635;SDS011;33364;50.766;15.338;2022-11-12T09:27:03;68.32;;;31.98;;
47635;SDS011;33364;50.766;15.338;2022-11-12T09:29:28;28.73;;;13.60;;
47635;SDS011;33364;50.766;15.338;2022-11-12T09:31:54;21.70;;;11.55;;
47635;SDS011;33364;50.766;15.338;2022-11-12T09:34:19;20.13;;;8.95;;
47635;SDS011;33364;50.766;15.338;2022-11-12T09:36:45;12.70;;;7.65;;
47635;SDS011;33364;50.766;15.338;2022-11-12T09:39:11;17.10;;;9.73;;
47635;SDS011;33364;50.766;15.338;2022-11-12T09:41:37;17.85;;;9.70;;
47635;SDS011;33364;50.766;15.338;2022-11-12T09:44:10;16.23;;;10.05;;
47635;SDS011;33364;50.766;15.338;2022-11-12T09:46:45;14.52;;;9.35;;
47635;SDS011;33364;50.766;15.338;2022-11-12T09:49:17;17.58;;;10.48;;
47635;SDS011;33364;50.766;15.338;2022-11-12T09:51:50;17.40;;;9.10;;
47635;SDS011;33364;50.766;15.338;2022-11-12T09:56:48;16.45;;;8.20;;
47635;SDS011;33364;50.766;15.338;2022-11-12T09:59:14;17.17;;;9.60;;
47635;SDS011;33364;50.766;15.338;2022-11-12T10:01:49;15.45;;;9.18;;
47635;SDS011;33364;50.766;15.338;2022-11-12T10:10:07;12.25;;;7.22;;
47635;SDS011;33364;50.766;15.338;2022-11-12T10:18:12;30.88;;;18.45;;
47635;SDS011;33364;50.766;15.338;2022-11-12T10:20:51;37.28;;;19.40;;
47635;SDS011;33364;50.766;15.338;2022-11-12T10:23:25;34.42;;;21.23;;
47635;SDS011;33364;50.766;15.338;2022-11-12T10:25:56;31.30;;;19.25;;
47635;SDS011;33364;50.766;15.338;2022-11-12T10:30:52;39.20;;;20.67;;
47635;SDS011;33364;50.766;15.338;2022-11-12T10:33:28;53.70;;;28.00;;
47635;SDS011;33364;50.766;15.338;2022-11-12T10:35:55;42.63;;;22.38;;
47635;SDS011;33364;50.766;15.338;2022-11-12T10:38:36;28.40;;;14.38;;
47635;SDS011;33364;50.766;15.338;2022-11-12T10:41:16;23.45;;;14.00;;
47635;SDS011;33364;50.766;15.338;2022-11-12T10:43:55;13.02;;;7.70;;
47635;SDS011;33364;50.766;15.338;2022-11-12T10:49:01;15.63;;;12.27;;
47635;SDS011;33364;50.766;15.338;2022-11-12T10:51:35;16.17;;;12.20;;
47635;SDS011;33364;50.766;15.338;2022-11-12T10:54:26;12.75;;;7.20;;
47635;SDS011;33364;50.766;15.338;2022-11-12T11:02:49;10.75;;;8.15;;
47635;SDS011;33364;50.766;15.338;2022-11-12T11:07:57;13.52;;;6.82;;
47635;SDS011;33364;50.766;15.338;2022-11-12T11:10:25;9.15;;;5.95;;
47635;SDS011;33364;50.766;15.338;2022-11-12T11:15:56;11.10;;;5.10;;
47635;SDS011;33364;50.766;15.338;2022-11-12T11:18:24;10.10;;;5.80;;
47635;SDS011;33364;50.766;15.338;2022-11-12T11:20:53;8.93;;;5.13;;
47635;SDS011;33364;50.766;15.338;2022-11-12T11:23:57;10.52;;;5.97;;
47635;SDS011;33364;50.766;15.338;2022-11-12T11:29:32;7.07;;;4.32;;
47635;SDS011;33364;50.766;15.338;2022-11-12T11:46:53;8.05;;;5.57;;
47635;SDS011;33364;50.766;15.338;2022-11-12T11:57:38;7.13;;;4.75;;
47635;SDS011;33364;50.766;15.338;2022-11-12T12:00:21;7.50;;;4.00;;
47635;SDS011;33364;50.766;15.338;2022-11-12T12:06:00;7.60;;;4.57;;
47635;SDS011;33364;50.766;15.338;2022-11-12T12:11:11;30.15;;;22.70;;
47635;SDS011;33364;50.766;15.338;2022-11-12T12:13:51;36.08;;;23.40;;
47635;SDS011;33364;50.766;15.338;2022-11-12T12:16:47;28.02;;;18.13;;
47635;SDS011;33364;50.766;15.338;2022-11-12T12:19:26;15.82;;;10.65;;
47635;SDS011;33364;50.766;15.338;2022-11-12T12:22:18;21.52;;;16.20;;
47635;SDS011;33364;50.766;15.338;2022-11-12T12:24:54;64.47;;;42.70;;
47635;SDS011;33364;50.766;15.338;2022-11-12T12:27:25;50.55;;;33.63;;
47635;SDS011;33364;50.766;15.338;2022-11-12T12:29:55;41.83;;;32.70;;
47635;SDS011;33364;50.766;15.338;2022-11-12T12:32:54;21.00;;;16.17;;
47635;SDS011;33364;50.766;15.338;2022-11-12T12:40:55;10.48;;;8.02;;
47635;SDS011;33364;50.766;15.338;2022-11-12T12:43:37;15.55;;;11.48;;
47635;SDS011;33364;50.766;15.338;2022-11-12T12:46:10;22.85;;;13.63;;
47635;SDS011;33364;50.766;15.338;2022-11-12T12:48:39;30.30;;;21.15;;
47635;SDS011;33364;50.766;15.338;2022-11-12T12:51:07;22.50;;;17.42;;
47635;SDS011;33364;50.766;15.338;2022-11-12T12:53:33;25.80;;;18.50;;
47635;SDS011;33364;50.766;15.338;2022-11-12T12:56:01;20.80;;;15.35;;
47635;SDS011;33364;50.766;15.338;2022-11-12T12:58:40;17.65;;;13.65;;
47635;SDS011;33364;50.766;15.338;2022-11-12T13:08:46;33.17;;;25.27;;
47635;SDS011;33364;50.766;15.338;2022-11-12T13:14:44;41.72;;;21.70;;
47635;SDS011;33364;50.766;15.338;2022-11-12T13:17:10;18.02;;;12.68;;
47635;SDS011;33364;50.766;15.338;2022-11-12T13:22:44;13.00;;;9.13;;
47635;SDS011;33364;50.766;15.338;2022-11-12T13:37:43;31.10;;;21.27;;
47635;SDS011;33364;50.766;15.338;2022-11-12T13:43:06;117.35;;;77.07;;
47635;SDS011;33364;50.766;15.338;2022-11-12T13:48:40;67.60;;;45.75;;
47635;SDS011;33364;50.766;15.338;2022-11-12T13:51:12;62.42;;;41.95;;
47635;SDS011;33364;50.766;15.338;2022-11-12T13:53:41;53.83;;;34.53;;
47635;SDS011;33364;50.766;15.338;2022-11-12T13:56:07;33.38;;;23.23;;
47635;SDS011;33364;50.766;15.338;2022-11-12T13:58:35;32.38;;;21.27;;
47635;SDS011;33364;50.766;15.338;2022-11-12T14:01:04;38.03;;;26.42;;
47635;SDS011;33364;50.766;15.338;2022-11-12T14:03:34;26.52;;;18.35;;
47635;SDS011;33364;50.766;15.338;2022-11-12T14:14:48;66.95;;;35.40;;
47635;SDS011;33364;50.766;15.338;2022-11-12T14:20:28;34.00;;;22.73;;
47635;SDS011;33364;50.766;15.338;2022-11-12T14:23:07;29.85;;;18.58;;
47635;SDS011;33364;50.766;15.338;2022-11-12T14:25:59;33.17;;;20.05;;
47635;SDS011;33364;50.766;15.338;2022-11-12T14:28:29;48.70;;;31.67;;
47635;SDS011;33364;50.766;15.338;2022-11-12T14:30:57;46.97;;;31.65;;
47635;SDS011;33364;50.766;15.338;2022-11-12T14:33:24;27.55;;;17.15;;
47635;SDS011;33364;50.766;15.338;2022-11-12T14:35:52;37.20;;;21.50;;
47635;SDS011;33364;50.766;15.338;2022-11-12T14:38:20;45.75;;;30.92;;
47635;SDS011;33364;50.766;15.338;2022-11-12T14:43:43;44.22;;;27.85;;
47635;SDS011;33364;50.766;15.338;2022-11-12T14:46:53;40.42;;;25.33;;
47635;SDS011;33364;50.766;15.338;2022-11-12T14:51:43;20.17;;;13.57;;
47635;SDS011;33364;50.766;15.338;2022-11-12T14:54:15;24.92;;;16.65;;
47635;SDS011;33364;50.766;15.338;2022-11-12T14:56:49;28.48;;;15.10;;
47635;SDS011;33364;50.766;15.338;2022-11-12T14:59:16;37.55;;;20.42;;
47635;SDS011;33364;50.766;15.338;2022-11-12T15:04:36;34.28;;;18.42;;
47635;SDS011;33364;50.766;15.338;2022-11-12T15:07:24;69.38;;;39.60;;
47635;SDS011;33364;50.766;15.338;2022-11-12T15:09:52;55.15;;;31.27;;
47635;SDS011;33364;50.766;15.338;2022-11-12T15:12:19;36.03;;;21.38;;
47635;SDS011;33364;50.766;15.338;2022-11-12T15:14:48;66.40;;;39.22;;
47635;SDS011;33364;50.766;15.338;2022-11-12T15:20:12;50.40;;;29.00;;
47635;SDS011;33364;50.766;15.338;2022-11-12T15:22:40;41.25;;;25.70;;
47635;SDS011;33364;50.766;15.338;2022-11-12T15:27:48;29.13;;;15.55;;
47635;SDS011;33364;50.766;15.338;2022-11-12T15:32:43;24.17;;;13.88;;
47635;SDS011;33364;50.766;15.338;2022-11-12T15:37:50;20.58;;;11.52;;
47635;SDS011;33364;50.766;15.338;2022-11-12T15:40:17;24.95;;;12.18;;
47635;SDS011;33364;50.766;15.338;2022-11-12T15:42:44;23.08;;;14.32;;
47635;SDS011;33364;50.766;15.338;2022-11-12T15:45:16;21.85;;;13.43;;
47635;SDS011;33364;50.766;15.338;2022-11-12T15:47:43;21.65;;;12.23;;
47635;SDS011;33364;50.766;15.338;2022-11-12T15:52:38;17.30;;;11.40;;
47635;SDS011;33364;50.766;15.338;2022-11-12T15:55:04;15.52;;;8.85;;
47635;SDS011;33364;50.766;15.338;2022-11-12T15:57:30;17.05;;;9.88;;
47635;SDS011;33364;50.766;15.338;2022-11-12T15:59:59;16.50;;;10.38;;
47635;SDS011;33364;50.766;15.338;2022-11-12T16:02:26;19.90;;;10.75;;
47635;SDS011;33364;50.766;15.338;2022-11-12T16:04:53;15.10;;;9.25;;
47635;SDS011;33364;50.766;15.338;2022-11-12T16:07:19;22.05;;;11.88;;
47635;SDS011;33364;50.766;15.338;2022-11-12T16:09:45;25.30;;;14.63;;
47635;SDS011;33364;50.766;15.338;2022-11-12T16:12:11;27.25;;;15.13;;
47635;SDS011;33364;50.766;15.338;2022-11-12T16:14:37;27.33;;;16.98;;
47635;SDS011;33364;50.766;15.338;2022-11-12T16:17:04;18.70;;;11.75;;
47635;SDS011;33364;50.766;15.338;2022-11-12T16:19:34;23.88;;;13.93;;
47635;SDS011;33364;50.766;15.338;2022-11-12T16:22:00;30.10;;;17.45;;
47635;SDS011;33364;50.766;15.338;2022-11-12T16:24:26;31.17;;;17.77;;
47635;SDS011;33364;50.766;15.338;2022-11-12T16:26:52;26.52;;;14.60;;
47635;SDS011;33364;50.766;15.338;2022-11-12T16:29:18;18.10;;;10.40;;
47635;SDS011;33364;50.766;15.338;2022-11-12T16:31:44;19.23;;;10.70;;
47635;SDS011;33364;50.766;15.338;2022-11-12T16:34:09;17.67;;;10.55;;
47635;SDS011;33364;50.766;15.338;2022-11-12T16:36:35;18.75;;;11.00;;
47635;SDS011;33364;50.766;15.338;2022-11-12T16:39:03;18.20;;;11.27;;
47635;SDS011;33364;50.766;15.338;2022-11-12T16:41:29;24.05;;;12.52;;
47635;SDS011;33364;50.766;15.338;2022-11-12T16:43:54;19.85;;;10.52;;
47635;SDS011;33364;50.766;15.338;2022-11-12T16:46:38;11.20;;;7.25;;
47635;SDS011;33364;50.766;15.338;2022-11-12T16:49:11;17.27;;;12.07;;
47635;SDS011;33364;50.766;15.338;2022-11-12T16:51:37;21.00;;;10.13;;
47635;SDS011;33364;50.766;15.338;2022-11-12T16:54:03;21.65;;;11.18;;
47635;SDS011;33364;50.766;15.338;2022-11-12T16:56:29;18.25;;;9.43;;